Lockbourne, OH (43137)

7:04 PM EDT on October 31, 2014 (GMT -0400)
Bixby Grove | Change Station
CLOSE
Current Station
Personal Weather Station
Location: Groveport, OH
Elevation: 740 ft
Nearby Weather Stations
Active Advisory: Freeze Watch

Elev 740 ft 39.86 °N, 82.92 °W | Updated 3 seconds ago

Drizzle
Drizzle
41.8 °F
Feels Like 42 °F
N
2.1
Wind Variable Wind from NW
Gusts 2.1 mph

Today
High -- | Low -- °F
--% Chance of Precip.
Yesterday
High -- | Low -- °F
Precip. -- in
7:59 AM 6:30 PM
First Quarter, 60% visible
Pressure 29.88 in
Visibility 10.0 miles
Clouds Mostly Cloudy 1300 ft
Mostly Cloudy 1900 ft
Overcast 2700 ft
Windchill 42 °F
Dew Point 39 °F
Humidity 90%
Rainfall 0.09 in
Snow Depth Not available.
UV 0 out of 12
Pollen .10 out of 12
Air Quality Not available.
Flu Activity Not available.
METAR KLCK 312255Z AUTO 32010G14KT 10SM DZ BKN013 BKN019 OVC027 05/03 A2988 RMK AO2 T00480034

More Conditions Fewer Conditions

Pressure 29.88 in
Visibility 10.0 miles
Clouds Mostly Cloudy 1300 ft
Mostly Cloudy 1900 ft
Overcast 2700 ft
Windchill 42 °F
Dew Point 39 °F
Humidity 90%
Rainfall 0.09 in
Snow Depth Not available.
UV 0 out of 12
Pollen .10 out of 12
Air Quality Not available.
Flu Activity Not available.
METAR KLCK 312255Z AUTO 32010G14KT 10SM DZ BKN013 BKN019 OVC027 05/03 A2988 RMK AO2 T00480034

More Conditions Fewer Conditions

10-Day Weather Forecast

Almanac

Astronomy

Oct. 31, 2014 Rise Set
Actual Time
Civil Twilight
Nautical Twilight
Astronomical Twilight
Moon
Length of Visible Light
Length of Day
Tomorrow will be .
, % of the Moon is Illuminated

Today's Extremes

State Highs State Lows

Community

WunderPhotos

Upload Photos

1,766,774 photos uploaded!

WunderBlogs® & News

Nearby

Air Quality

  Air Quality AQ Index Pollutant
Not available.

Snow Depth

Station Depth Elevation

Earthquake Activity

City Distance Mag. Time & Date
Minimum magnitude displayed is 2.5.

Coastal Water Temperatures

Place Temperature

Nearby Weather Stations